Time;durP1;ratioP1;P1;durP2;ratioP2;P2;SDS_P1;SDS_P2;PMS_P1;PMS_P2;Temp;Humidity;BMP_temperature;BMP_pressure;BME280_temperature;BME280_humidity;BME280_pressure;Samples;Min_cycle;Max_cycle;Signal;HPM_P1;HPM_P2
2022/08/21 00:01:43;;;;;;;12.48;7.07;;;15.30;99.90;;;;;;5050747;28;20072;-81
2022/08/21 00:04:09;;;;;;;9.45;5.85;;;15.20;99.90;;;;;;5053489;28;20037;-81
2022/08/21 00:06:36;;;;;;;5.55;4.72;;;15.20;99.90;;;;;;5057020;28;20407;-81
2022/08/21 00:09:04;;;;;;;7.63;4.25;;;15.10;99.90;;;;;;5052438;28;20045;-81
2022/08/21 00:11:29;;;;;;;8.05;4.00;;;15.00;99.90;;;;;;5102737;28;20102;-81
2022/08/21 00:13:55;;;;;;;5.82;4.80;;;14.90;99.90;;;;;;5052933;28;20430;-81
2022/08/21 00:16:21;;;;;;;7.00;4.28;;;14.90;99.90;;;;;;5052735;28;20075;-82
2022/08/21 00:18:49;;;;;;;5.80;4.45;;;14.70;99.90;;;;;;5052255;28;20076;-82
2022/08/21 00:21:15;;;;;;;6.57;5.40;;;14.70;99.90;;;;;;5052187;28;20077;-81
2022/08/21 00:23:42;;;;;;;13.52;5.10;;;14.60;99.90;;;;;;5052884;28;20318;-82
2022/08/21 00:26:07;;;;;;;6.05;4.65;;;14.60;99.90;;;;;;5067673;28;20397;-82
2022/08/21 00:28:33;;;;;;;6.00;4.15;;;14.60;99.90;;;;;;5071555;28;20044;-82
2022/08/21 00:30:59;;;;;;;7.65;5.53;;;14.60;99.90;;;;;;5059585;28;20052;-82
2022/08/21 00:33:26;;;;;;;6.05;3.55;;;14.60;99.90;;;;;;5055673;28;20491;-81
2022/08/21 00:35:52;;;;;;;4.70;3.70;;;14.60;99.90;;;;;;5052554;28;20446;-81
2022/08/21 00:38:18;;;;;;;6.20;4.53;;;14.50;99.90;;;;;;5052257;28;20268;-81
2022/08/21 00:40:54;;;;;;;6.15;3.95;;;14.50;99.90;;;;;;5031789;28;20127;-81
2022/08/21 00:43:28;;;;;;;7.65;4.50;;;14.50;99.90;;;;;;5050598;28;20625;-81
2022/08/21 00:45:55;;;;;;;7.15;6.07;;;14.40;99.90;;;;;;5051553;28;20045;-81
2022/08/21 00:48:21;;;;;;;11.27;7.20;;;14.40;99.90;;;;;;5050219;28;20037;-81
2022/08/21 00:50:53;;;;;;;13.73;8.20;;;14.40;99.90;;;;;;5044276;28;20052;-82
2022/08/21 00:53:19;;;;;;;10.15;6.75;;;14.40;99.90;;;;;;5049585;28;20056;-82
2022/08/21 00:55:45;;;;;;;8.93;7.38;;;14.40;99.90;;;;;;5032709;28;20089;-83
2022/08/21 00:58:13;;;;;;;11.10;6.13;;;14.30;99.90;;;;;;5049318;28;20045;-82
2022/08/21 01:00:42;;;;;;;6.43;5.05;;;14.30;99.90;;;;;;5054510;28;20091;-82
2022/08/21 01:03:15;;;;;;;7.15;4.40;;;14.20;99.90;;;;;;5049291;28;20029;-82
2022/08/21 01:05:41;;;;;;;7.32;3.85;;;14.20;99.90;;;;;;5049234;28;20116;-82
2022/08/21 01:08:08;;;;;;;6.70;4.78;;;14.20;99.90;;;;;;5049168;28;20049;-82
2022/08/21 01:10:35;;;;;;;5.75;4.25;;;14.20;99.90;;;;;;5053534;28;20076;-82
2022/08/21 01:13:02;;;;;;;5.60;4.57;;;14.20;99.90;;;;;;5045708;28;20102;-82
2022/08/21 01:15:33;;;;;;;8.73;5.28;;;14.30;99.90;;;;;;5053222;28;20391;-82
2022/08/21 01:17:58;;;;;;;8.38;5.25;;;14.30;99.90;;;;;;5070502;28;20590;-82
2022/08/21 01:20:25;;;;;;;13.13;5.07;;;14.40;99.90;;;;;;5058088;28;20112;-83
2022/08/21 01:22:51;;;;;;;8.18;6.35;;;14.40;99.90;;;;;;5036002;28;20029;-82
2022/08/21 01:25:19;;;;;;;7.55;3.78;;;14.50;99.90;;;;;;5058709;28;20086;-82
2022/08/21 01:27:45;;;;;;;9.32;5.60;;;14.60;99.90;;;;;;5073356;28;20433;-82
2022/08/21 01:30:13;;;;;;;7.35;4.60;;;14.60;99.90;;;;;;5043878;28;20037;-83
2022/08/21 01:32:39;;;;;;;8.52;4.97;;;14.70;99.90;;;;;;5052716;28;20048;-83
2022/08/21 01:35:06;;;;;;;5.50;3.80;;;14.80;99.90;;;;;;5052049;28;20088;-82
2022/08/21 01:37:32;;;;;;;9.65;5.20;;;14.80;99.90;;;;;;5072760;28;20418;-83
2022/08/21 01:39:58;;;;;;;8.82;4.53;;;14.80;99.90;;;;;;5060650;28;20029;-83
2022/08/21 01:42:23;;;;;;;6.28;4.00;;;14.80;99.90;;;;;;5052358;28;20139;-83
2022/08/21 01:44:49;;;;;;;10.23;4.78;;;14.80;99.90;;;;;;5052733;28;20064;-82
2022/08/21 01:47:15;;;;;;;9.10;4.60;;;14.80;99.90;;;;;;5052375;28;20127;-83
2022/08/21 01:49:42;;;;;;;5.75;4.13;;;14.80;99.90;;;;;;5039741;28;20036;-82
2022/08/21 01:52:08;;;;;;;10.82;5.03;;;14.80;99.90;;;;;;5037398;28;20033;-83
2022/08/21 01:54:34;;;;;;;10.23;4.00;;;14.80;99.90;;;;;;5052343;28;20041;-82
2022/08/21 01:57:00;;;;;;;4.43;3.97;;;14.80;99.90;;;;;;5052611;28;20063;-82
2022/08/21 01:59:26;;;;;;;7.95;4.38;;;14.70;99.90;;;;;;5039043;28;20037;-82
2022/08/21 02:01:55;;;;;;;6.03;3.63;;;14.70;99.90;;;;;;5045463;28;20040;-83
2022/08/21 02:04:22;;;;;;;6.65;4.30;;;14.70;99.90;;;;;;5072112;28;20032;-82
2022/08/21 02:06:48;;;;;;;9.18;4.88;;;14.60;99.90;;;;;;5071890;28;20036;-82
2022/08/21 02:09:14;;;;;;;5.57;4.10;;;14.60;99.90;;;;;;5053342;28;20045;-82
2022/08/21 02:11:41;;;;;;;6.20;4.00;;;14.60;99.90;;;;;;5055320;28;20044;-82
2022/08/21 02:14:09;;;;;;;5.03;4.53;;;14.50;99.90;;;;;;5071887;28;20046;-82
2022/08/21 02:16:35;;;;;;;5.05;4.05;;;14.40;99.90;;;;;;5055490;28;20044;-83
2022/08/21 02:19:01;;;;;;;9.43;4.05;;;14.40;99.90;;;;;;5041227;28;20095;-83
2022/08/21 02:21:26;;;;;;;9.10;4.28;;;14.40;99.90;;;;;;5056266;28;20452;-82
2022/08/21 02:23:52;;;;;;;9.38;4.53;;;14.40;99.90;;;;;;5048088;28;20047;-82
2022/08/21 02:26:18;;;;;;;5.78;3.72;;;14.30;99.90;;;;;;5071778;28;20032;-82
2022/08/21 02:28:43;;;;;;;8.15;3.72;;;14.20;99.90;;;;;;5069645;28;20617;-82
2022/08/21 02:31:09;;;;;;;10.25;4.10;;;14.30;99.90;;;;;;5052615;28;20082;-82
2022/08/21 02:33:35;;;;;;;8.35;4.55;;;14.30;99.90;;;;;;5054995;28;20041;-82
2022/08/21 02:36:02;;;;;;;9.93;4.38;;;14.20;99.90;;;;;;5051684;28;20510;-82
2022/08/21 02:38:30;;;;;;;7.28;4.63;;;14.20;99.90;;;;;;5036559;28;20415;-81
2022/08/21 02:40:57;;;;;;;8.02;4.53;;;14.10;99.90;;;;;;5054417;28;20079;-81
2022/08/21 02:43:25;;;;;;;7.10;5.03;;;14.10;99.90;;;;;;5054371;28;20044;-81
2022/08/21 02:45:52;;;;;;;7.75;4.95;;;14.10;99.90;;;;;;5067764;28;20103;-81
2022/08/21 02:48:21;;;;;;;10.70;5.22;;;14.10;99.90;;;;;;5061348;28;20039;-81
2022/08/21 02:50:53;;;;;;;9.18;5.35;;;14.10;99.90;;;;;;5075368;28;20095;-81
2022/08/21 02:53:19;;;;;;;10.02;5.32;;;14.00;99.90;;;;;;5074836;28;20119;-81
2022/08/21 02:55:47;;;;;;;9.77;5.97;;;14.00;99.90;;;;;;5062963;28;20499;-81
2022/08/21 02:58:16;;;;;;;8.85;5.25;;;14.00;99.90;;;;;;5053606;28;20167;-80
2022/08/21 03:00:43;;;;;;;7.38;5.57;;;14.00;99.90;;;;;;5053820;28;20037;-81
2022/08/21 03:03:09;;;;;;;9.75;8.25;;;14.00;99.90;;;;;;5053684;28;20151;-81
2022/08/21 03:05:37;;;;;;;13.73;10.25;;;14.00;99.90;;;;;;5056658;28;20037;-80
2022/08/21 03:08:05;;;;;;;41.20;29.88;;;14.00;99.90;;;;;;5054317;28;20045;-81
2022/08/21 03:10:30;;;;;;;29.48;23.52;;;14.00;99.90;;;;;;5054086;28;20471;-80
2022/08/21 03:12:56;;;;;;;18.55;13.73;;;14.00;99.90;;;;;;5053507;28;20083;-82
2022/08/21 03:15:23;;;;;;;20.73;12.57;;;13.90;99.90;;;;;;5059937;28;20041;-81
2022/08/21 03:17:50;;;;;;;17.52;13.00;;;13.90;99.90;;;;;;5053252;28;20487;-81
2022/08/21 03:20:19;;;;;;;16.98;13.68;;;13.80;99.90;;;;;;5059791;28;20069;-80
2022/08/21 03:22:44;;;;;;;18.58;14.32;;;13.80;99.90;;;;;;5053149;28;20092;-81
2022/08/21 03:25:10;;;;;;;20.45;15.10;;;13.80;99.90;;;;;;5037024;28;20077;-80
2022/08/21 03:27:36;;;;;;;29.67;18.38;;;13.80;99.90;;;;;;5053669;28;20098;-80
2022/08/21 03:30:05;;;;;;;17.75;13.73;;;13.70;99.90;;;;;;5053174;28;20130;-82
2022/08/21 03:32:31;;;;;;;16.27;12.43;;;13.70;99.90;;;;;;5060970;28;20526;-82
2022/08/21 03:34:57;;;;;;;16.60;10.15;;;13.70;99.90;;;;;;5040015;28;20037;-82
2022/08/21 03:37:24;;;;;;;14.00;10.13;;;13.70;99.90;;;;;;5050908;28;20044;-82
2022/08/21 03:39:50;;;;;;;11.63;9.05;;;13.70;99.90;;;;;;5051157;28;20029;-82
2022/08/21 03:42:16;;;;;;;9.45;7.25;;;13.70;99.90;;;;;;5051982;28;20063;-81
2022/08/21 03:44:41;;;;;;;15.20;8.77;;;13.70;99.90;;;;;;5056531;28;20090;-81
2022/08/21 03:47:07;;;;;;;12.80;8.40;;;13.70;99.90;;;;;;5051013;28;20490;-83
2022/08/21 03:49:33;;;;;;;15.05;9.65;;;13.70;99.90;;;;;;5055887;28;20072;-82
2022/08/21 03:51:59;;;;;;;13.27;7.20;;;13.60;99.90;;;;;;5070000;28;20414;-82
2022/08/21 03:54:25;;;;;;;16.30;8.20;;;13.60;99.90;;;;;;5051326;28;20457;-82
2022/08/21 03:56:51;;;;;;;11.38;7.65;;;13.60;99.90;;;;;;5051593;28;20123;-82
2022/08/21 03:59:17;;;;;;;12.65;8.82;;;13.50;99.90;;;;;;5049651;28;20377;-82
2022/08/21 04:02:00;;;;;;;10.75;8.82;;;13.60;99.90;;;;;;5049877;28;20040;-82
2022/08/21 04:04:27;;;;;;;13.50;8.68;;;13.50;99.90;;;;;;5056665;28;20127;-82
2022/08/21 04:06:53;;;;;;;16.50;8.05;;;13.50;99.90;;;;;;5050807;28;20040;-81
2022/08/21 04:09:19;;;;;;;10.02;8.35;;;13.40;99.90;;;;;;5051168;28;20372;-81
2022/08/21 04:11:46;;;;;;;19.65;14.93;;;13.40;99.90;;;;;;5051505;28;20335;-81
2022/08/21 04:14:13;;;;;;;55.78;41.85;;;13.40;99.90;;;;;;5055487;28;20088;-81
2022/08/21 04:16:39;;;;;;;43.60;35.80;;;13.40;99.90;;;;;;5054178;28;20123;-81
2022/08/21 04:19:05;;;;;;;27.70;23.40;;;13.40;99.90;;;;;;5050816;28;20579;-81
2022/08/21 04:21:31;;;;;;;22.50;14.57;;;13.40;99.90;;;;;;5057505;28;20037;-81
2022/08/21 04:23:59;;;;;;;16.08;12.63;;;13.40;99.90;;;;;;5050878;28;20041;-81
2022/08/21 04:26:25;;;;;;;12.73;9.77;;;13.40;99.90;;;;;;5050855;28;20048;-80
2022/08/21 04:28:51;;;;;;;13.52;9.65;;;13.30;99.90;;;;;;5050512;28;20076;-85
2022/08/21 04:31:17;;;;;;;15.70;9.23;;;13.30;99.90;;;;;;5054786;28;20048;-81
2022/08/21 04:33:43;;;;;;;17.38;10.65;;;13.30;99.90;;;;;;5052611;28;20052;-80
2022/08/21 04:36:09;;;;;;;11.98;9.35;;;13.30;99.90;;;;;;5034216;28;20056;-81
2022/08/21 04:38:34;;;;;;;18.27;9.38;;;13.30;99.90;;;;;;5050245;28;20045;-81
2022/08/21 04:41:00;;;;;;;12.02;8.30;;;13.20;99.90;;;;;;5051668;28;20047;-80
2022/08/21 04:43:26;;;;;;;13.45;8.43;;;13.20;99.90;;;;;;5054824;28;20037;-81
2022/08/21 04:45:52;;;;;;;9.45;7.28;;;13.20;99.90;;;;;;5035011;28;20052;-80
2022/08/21 04:48:21;;;;;;;12.63;9.20;;;13.20;99.90;;;;;;5054555;28;20049;-80
2022/08/21 04:51:02;;;;;;;12.10;9.68;;;13.20;99.90;;;;;;5053775;28;20037;-81
2022/08/21 04:53:49;;;;;;;11.88;8.77;;;13.20;99.90;;;;;;5052762;28;20368;-81
2022/08/21 04:56:22;;;;;;;11.00;8.68;;;13.20;99.90;;;;;;5034765;28;20134;-80
2022/08/21 04:58:50;;;;;;;13.13;8.07;;;13.20;99.90;;;;;;5038394;28;20375;-80
2022/08/21 05:01:20;;;;;;;11.48;8.70;;;13.20;99.90;;;;;;5056466;28;20473;-80
2022/08/21 05:03:48;;;;;;;11.23;8.20;;;13.20;99.90;;;;;;5055864;28;20072;-81
2022/08/21 05:06:15;;;;;;;13.20;8.15;;;13.30;99.90;;;;;;5054498;28;20095;-80
2022/08/21 05:08:43;;;;;;;11.30;7.85;;;13.30;99.90;;;;;;5054407;28;20048;-81
2022/08/21 05:11:09;;;;;;;16.40;8.88;;;13.40;99.90;;;;;;5055722;28;20056;-81
2022/08/21 05:13:35;;;;;;;17.48;8.05;;;13.40;99.90;;;;;;5041109;28;20044;-81
2022/08/21 05:16:01;;;;;;;24.25;9.40;;;13.40;99.90;;;;;;5054711;28;20045;-83
2022/08/21 05:18:26;;;;;;;11.23;8.40;;;13.40;99.90;;;;;;5054001;28;20037;-80
2022/08/21 05:20:52;;;;;;;12.25;7.90;;;13.50;99.90;;;;;;5053214;28;20337;-81
2022/08/21 05:23:18;;;;;;;12.52;7.05;;;13.50;99.90;;;;;;5059111;28;20368;-80
2022/08/21 05:25:43;;;;;;;14.95;8.70;;;13.50;99.90;;;;;;5054022;28;20048;-81
2022/08/21 05:28:10;;;;;;;13.55;8.68;;;13.60;99.90;;;;;;5061281;28;20037;-79
2022/08/21 05:30:36;;;;;;;17.85;9.07;;;13.60;99.90;;;;;;5054432;28;20295;-80
2022/08/21 05:33:04;;;;;;;14.43;9.95;;;13.70;99.90;;;;;;5059237;28;20043;-80
2022/08/21 05:35:30;;;;;;;12.95;8.68;;;13.70;99.90;;;;;;5053812;28;20040;-81
2022/08/21 05:37:56;;;;;;;14.75;10.07;;;13.80;99.90;;;;;;5054583;28;20056;-81
2022/08/21 05:40:22;;;;;;;11.77;8.65;;;13.80;99.90;;;;;;5054020;28;20049;-81
2022/08/21 05:42:49;;;;;;;12.15;9.32;;;13.90;99.90;;;;;;5058356;28;20036;-81
2022/08/21 05:45:15;;;;;;;14.43;8.75;;;14.00;99.90;;;;;;5058879;28;20048;-81
2022/08/21 05:47:40;;;;;;;13.90;9.32;;;14.10;99.90;;;;;;5073494;28;20133;-81
2022/08/21 05:50:06;;;;;;;12.75;8.85;;;14.10;99.90;;;;;;5058213;28;20064;-81
2022/08/21 05:52:32;;;;;;;12.02;8.18;;;14.20;99.90;;;;;;5057212;28;20056;-81
2022/08/21 05:54:57;;;;;;;10.60;8.13;;;14.30;99.90;;;;;;5053378;28;20045;-81
2022/08/21 05:57:23;;;;;;;15.43;9.27;;;14.40;99.90;;;;;;5052642;28;20470;-81
2022/08/21 05:59:50;;;;;;;10.50;7.97;;;14.50;99.90;;;;;;5061549;28;20040;-82
2022/08/21 06:02:18;;;;;;;11.82;7.22;;;14.60;99.90;;;;;;5065398;28;20033;-82
2022/08/21 06:04:43;;;;;;;12.65;9.00;;;14.70;99.90;;;;;;5052978;28;20049;-81
2022/08/21 06:07:09;;;;;;;12.80;9.15;;;14.80;99.90;;;;;;5052600;28;20029;-81
2022/08/21 06:09:35;;;;;;;11.10;7.93;;;14.90;99.90;;;;;;5052127;28;20472;-82
2022/08/21 06:12:06;;;;;;;10.88;7.68;;;15.00;99.90;;;;;;5054791;28;20079;-81
2022/08/21 06:14:31;;;;;;;9.45;7.85;;;15.10;99.90;;;;;;5052192;28;20083;-80
2022/08/21 06:17:09;;;;;;;10.63;7.90;;;15.20;99.90;;;;;;5052376;28;20064;-81
2022/08/21 06:19:35;;;;;;;13.93;7.75;;;15.30;99.90;;;;;;5034926;28;20044;-82
2022/08/21 06:22:02;;;;;;;9.23;6.55;;;15.40;99.90;;;;;;5055157;28;20407;-82
2022/08/21 06:24:28;;;;;;;9.68;6.88;;;15.50;99.90;;;;;;5037799;28;20048;-82
2022/08/21 06:26:54;;;;;;;9.85;6.70;;;15.60;99.90;;;;;;5068512;28;20075;-83
2022/08/21 06:29:19;;;;;;;11.00;6.85;;;15.70;99.90;;;;;;5051520;28;20072;-83
2022/08/21 06:31:47;;;;;;;14.32;7.45;;;15.80;99.90;;;;;;5036925;28;20075;-82
2022/08/21 06:34:13;;;;;;;10.48;6.68;;;15.90;99.90;;;;;;5051426;28;20052;-83
2022/08/21 06:36:39;;;;;;;9.38;6.38;;;16.00;99.90;;;;;;5051695;28;20037;-84
2022/08/21 06:39:04;;;;;;;9.05;6.18;;;16.10;99.90;;;;;;5052401;28;20171;-82
2022/08/21 06:41:31;;;;;;;18.35;6.45;;;16.20;99.90;;;;;;5035033;28;20033;-83
2022/08/21 06:43:57;;;;;;;9.30;6.55;;;16.30;99.90;;;;;;5035142;28;20060;-83
2022/08/21 06:46:25;;;;;;;12.15;6.38;;;16.40;99.90;;;;;;5052459;28;20052;-82
2022/08/21 06:48:50;;;;;;;12.40;5.78;;;16.60;99.90;;;;;;5051566;28;20044;-82
2022/08/21 06:51:16;;;;;;;7.78;5.70;;;16.70;99.90;;;;;;5051012;28;20135;-82
2022/08/21 06:53:41;;;;;;;8.48;4.65;;;16.80;99.90;;;;;;5053507;28;20483;-82
2022/08/21 06:56:07;;;;;;;6.63;5.32;;;16.90;99.90;;;;;;5034554;28;20033;-82
2022/08/21 06:58:33;;;;;;;7.00;4.80;;;17.00;99.90;;;;;;5051158;28;20037;-82
2022/08/21 07:00:59;;;;;;;15.98;7.22;;;17.10;99.90;;;;;;5053752;28;20430;-80
2022/08/21 07:03:35;;;;;;;6.05;4.18;;;17.20;99.90;;;;;;5060914;28;20039;-80
2022/08/21 07:06:02;;;;;;;8.80;5.05;;;17.40;99.90;;;;;;5047436;28;20041;-82
2022/08/21 07:08:28;;;;;;;10.13;5.00;;;17.50;99.90;;;;;;5053438;28;20044;-83
2022/08/21 07:10:56;;;;;;;8.50;4.03;;;17.60;99.90;;;;;;5052359;28;20045;-82
2022/08/21 07:13:22;;;;;;;7.38;3.72;;;17.90;99.90;;;;;;5051748;28;20137;-82
2022/08/21 07:15:48;;;;;;;9.95;4.82;;;18.20;99.90;;;;;;5066388;28;20036;-82
2022/08/21 07:18:14;;;;;;;5.50;3.75;;;18.40;99.90;;;;;;5050384;28;20037;-83
2022/08/21 07:20:40;;;;;;;9.43;3.72;;;18.70;99.90;;;;;;5050436;28;20520;-85
2022/08/21 07:23:10;;;;;;;7.57;3.65;;;18.90;99.90;;;;;;5051046;28;20365;-82
2022/08/21 07:25:36;;;;;;;11.07;4.55;;;19.10;99.90;;;;;;5051412;28;21389;-82
2022/08/21 07:28:02;;;;;;;7.18;3.53;;;19.30;99.90;;;;;;5050318;28;20041;-84
2022/08/21 07:30:28;;;;;;;7.00;3.67;;;19.40;99.90;;;;;;5051862;28;20044;-83
2022/08/21 07:32:54;;;;;;;9.48;4.68;;;19.60;99.90;;;;;;5066084;28;20127;-83
2022/08/21 07:35:21;;;;;;;7.63;3.72;;;19.80;99.90;;;;;;5069797;28;20063;-82
2022/08/21 07:37:47;;;;;;;10.43;4.25;;;20.00;99.90;;;;;;5083289;28;20381;-82
2022/08/21 07:40:13;;;;;;;10.10;4.25;;;20.20;99.90;;;;;;5050051;28;20139;-83
2022/08/21 07:42:43;;;;;;;7.65;4.03;;;20.40;99.90;;;;;;5050463;28;20144;-82
2022/08/21 07:45:10;;;;;;;11.73;3.92;;;20.50;99.90;;;;;;5050350;28;20082;-82
2022/08/21 07:47:35;;;;;;;9.38;3.22;;;20.60;99.90;;;;;;5053276;28;20037;-82
2022/08/21 07:50:01;;;;;;;9.02;3.22;;;20.70;99.90;;;;;;5050163;28;20380;-84
2022/08/21 07:52:26;;;;;;;6.28;2.20;;;20.80;99.90;;;;;;5055724;28;20665;-82
2022/08/21 07:54:53;;;;;;;9.50;2.58;;;20.70;99.90;;;;;;5050063;28;20067;-81
2022/08/21 07:57:18;;;;;;;6.72;2.22;;;20.80;99.90;;;;;;5069844;28;20364;-81
2022/08/21 07:59:44;;;;;;;7.00;2.45;;;20.90;99.90;;;;;;5056161;28;20037;-81
2022/08/21 08:02:10;;;;;;;6.20;2.05;;;21.10;99.90;;;;;;5056836;28;20032;-80
2022/08/21 08:04:35;;;;;;;6.85;2.05;;;21.30;99.90;;;;;;5039183;28;20036;-81
2022/08/21 08:07:01;;;;;;;7.03;2.50;;;21.30;99.90;;;;;;5052614;28;20044;-81
2022/08/21 08:09:27;;;;;;;10.10;2.97;;;21.40;99.90;;;;;;5051072;28;20044;-80
2022/08/21 08:11:52;;;;;;;6.13;2.50;;;21.50;99.90;;;;;;5032952;28;20049;-81
2022/08/21 08:14:18;;;;;;;5.75;1.77;;;21.70;99.90;;;;;;5051525;28;20337;-81
2022/08/21 08:16:44;;;;;;;6.30;1.83;;;21.80;99.90;;;;;;5051905;28;20037;-80
2022/08/21 08:19:09;;;;;;;6.28;1.80;;;22.00;99.90;;;;;;5050715;28;20294;-80
2022/08/21 08:21:37;;;;;;;5.13;1.50;;;22.00;99.90;;;;;;5051843;28;20094;-80
2022/08/21 08:24:03;;;;;;;4.20;1.20;;;22.00;99.90;;;;;;5052012;28;20040;-80
2022/08/21 08:26:28;;;;;;;5.65;1.42;;;22.00;99.90;;;;;;5050891;28;20036;-80
2022/08/21 08:28:54;;;;;;;4.47;1.05;;;22.10;99.90;;;;;;5051058;28;20071;-80
2022/08/21 08:31:20;;;;;;;5.68;2.10;;;22.20;99.90;;;;;;5051269;28;20204;-79
2022/08/21 08:33:45;;;;;;;4.35;0.98;;;22.40;99.90;;;;;;5092189;28;20041;-80
2022/08/21 08:36:17;;;;;;;4.40;1.50;;;22.50;99.90;;;;;;5034108;28;20528;-80
2022/08/21 08:38:43;;;;;;;5.72;1.40;;;22.60;99.90;;;;;;5049532;28;20059;-79
2022/08/21 08:41:15;;;;;;;9.20;1.42;;;22.60;99.90;;;;;;5050427;28;21587;-80
2022/08/21 08:43:50;;;;;;;7.03;1.27;;;22.70;99.90;;;;;;5055813;28;20125;-80
2022/08/21 08:46:19;;;;;;;9.15;1.90;;;22.90;99.90;;;;;;5049541;28;20029;-81
2022/08/21 08:48:52;;;;;;;4.93;0.90;;;23.20;99.90;;;;;;5049697;28;20051;-79
2022/08/21 08:51:27;;;;;;;4.85;0.98;;;23.20;99.90;;;;;;5049664;28;20060;-80
2022/08/21 08:54:01;;;;;;;4.22;1.35;;;23.30;99.90;;;;;;5037457;28;20059;-80
2022/08/21 08:56:30;;;;;;;7.35;1.30;;;23.30;99.90;;;;;;5055030;28;20052;-80
2022/08/21 08:59:19;;;;;;;5.90;1.05;;;23.10;99.90;;;;;;5049083;28;20049;-79
2022/08/21 09:01:45;;;;;;;4.15;0.52;;;23.00;99.90;;;;;;5048565;28;20049;-78
2022/08/21 09:04:12;;;;;;;4.57;1.52;;;23.10;99.90;;;;;;5050680;28;20680;-79
2022/08/21 09:07:15;;;;;;;6.35;1.02;;;23.10;99.90;;;;;;5088609;28;20036;-79
2022/08/21 09:10:25;;;;;;;6.45;1.02;;;23.00;99.90;;;;;;5038331;28;20174;-79
2022/08/21 09:13:07;;;;;;;5.63;0.82;;;22.90;99.90;;;;;;4979907;28;20092;-81
2022/08/21 09:15:58;;;;;;;2.95;0.88;;;23.00;99.90;;;;;;5045591;28;20056;-80
2022/08/21 09:18:34;;;;;;;6.85;1.65;;;23.20;99.90;;;;;;5029487;28;20064;-80
2022/08/21 09:21:27;;;;;;;9.25;2.33;;;23.50;99.90;;;;;;5033128;28;20077;-80
2022/08/21 09:24:14;;;;;;;14.65;2.45;;;23.50;99.90;;;;;;5049470;28;20056;-78
2022/08/21 09:27:12;;;;;;;6.57;1.25;;;23.50;99.90;;;;;;5050694;28;20037;-78
2022/08/21 09:29:50;;;;;;;7.05;2.08;;;23.50;99.90;;;;;;5050992;28;20101;-78
2022/08/21 09:32:19;;;;;;;13.32;7.70;;;23.70;99.90;;;;;;5052601;28;20041;-79
2022/08/21 09:35:05;;;;;;;8.85;3.95;;;23.80;99.90;;;;;;5039179;28;20052;-79
2022/08/21 09:37:34;;;;;;;6.40;1.83;;;24.00;99.90;;;;;;5057645;28;20047;-78
2022/08/21 09:40:02;;;;;;;9.48;2.42;;;24.10;99.90;;;;;;5102260;28;20051;-79
2022/08/21 09:42:33;;;;;;;9.68;1.95;;;24.30;99.90;;;;;;5055641;28;20120;-80
2022/08/21 09:45:16;;;;;;;8.02;1.45;;;24.60;99.90;;;;;;5053299;28;20060;-79
2022/08/21 09:47:43;;;;;;;6.25;1.92;;;25.00;99.90;;;;;;5062286;28;20387;-78
2022/08/21 09:50:17;;;;;;;4.38;1.15;;;25.10;99.90;;;;;;5053176;28;20037;-79
2022/08/21 09:52:45;;;;;;;5.60;1.20;;;25.00;99.90;;;;;;5053794;28;20558;-79
2022/08/21 09:57:38;;;;;;;10.57;2.03;;;24.60;99.90;;;;;;5039233;28;20130;-79
2022/08/21 09:58:04;;;;;;;5.05;1.30;;;24.50;99.90;;;;;;5058730;28;20146;-80
2022/08/21 10:00:35;;;;;;;6.47;1.25;;;24.60;99.90;;;;;;5064917;28;20040;-79
2022/08/21 10:03:16;;;;;;;4.30;0.95;;;24.90;99.90;;;;;;5053748;28;20134;-79
2022/08/21 10:05:56;;;;;;;4.80;1.02;;;25.20;99.90;;;;;;5084431;28;20135;-79
2022/08/21 10:08:24;;;;;;;4.72;0.50;;;25.60;99.90;;;;;;5049528;28;20175;-80
2022/08/21 10:10:54;;;;;;;3.67;0.50;;;26.00;99.90;;;;;;5058376;28;20037;-79
2022/08/21 10:13:40;;;;;;;3.42;0.50;;;26.30;97.30;;;;;;5058262;28;20045;-80
2022/08/21 10:16:24;;;;;;;4.18;0.40;;;26.40;94.80;;;;;;5039647;28;20037;-80
2022/08/21 10:19:20;;;;;;;5.03;1.47;;;26.40;93.60;;;;;;5057216;28;20033;-81
2022/08/21 10:22:21;;;;;;;2.20;0.47;;;26.70;93.20;;;;;;5029302;28;20045;-80
2022/08/21 10:25:02;;;;;;;5.22;0.50;;;26.80;87.70;;;;;;5059394;28;20035;-78
2022/08/21 10:27:40;;;;;;;3.78;1.15;;;27.10;91.70;;;;;;5031588;28;20068;-77
2022/08/21 10:30:14;;;;;;;3.63;1.02;;;27.40;90.80;;;;;;5057083;28;20675;-78
2022/08/21 10:32:53;;;;;;;;;;;27.30;91.00;;;;;;5044261;28;20040;-78
2022/08/21 10:35:31;;;;;;;8.25;0.70;;;27.20;85.60;;;;;;5059589;28;19916;-78
2022/08/21 10:38:06;;;;;;;8.38;1.27;;;27.30;91.70;;;;;;5079283;28;20129;-78
2022/08/21 10:40:44;;;;;;;2.25;0.85;;;27.70;86.70;;;;;;5058308;28;20100;-78
2022/08/21 10:43:35;;;;;;;8.35;1.52;;;27.90;84.10;;;;;;5038656;28;20040;-79
2022/08/21 10:46:06;;;;;;;2.28;0.60;;;28.20;82.90;;;;;;5057944;28;20222;-80
2022/08/21 10:48:58;;;;;;;4.72;0.65;;;28.40;79.90;;;;;;5056532;28;20045;-79
2022/08/21 10:51:53;;;;;;;5.38;0.55;;;28.50;77.70;;;;;;5057753;28;20178;-79
2022/08/21 10:54:57;;;;;;;4.65;0.60;;;28.60;78.30;;;;;;5059180;28;20056;-79
2022/08/21 10:57:48;;;;;;;5.30;0.82;;;29.00;70.00;;;;;;5011372;28;20054;-79
2022/08/21 11:00:18;;;;;;;2.38;0.47;;;29.30;71.90;;;;;;5057950;28;20053;-78
2022/08/21 11:03:02;;;;;;;4.28;0.35;;;29.60;71.40;;;;;;5086393;28;20087;-79
2022/08/21 11:05:35;;;;;;;2.25;0.55;;;30.10;68.50;;;;;;5042305;28;20506;-79
2022/08/21 11:08:12;;;;;;;4.53;0.50;;;30.10;65.60;;;;;;5044499;28;20060;-79
2022/08/21 11:10:52;;;;;;;4.22;0.70;;;30.00;63.90;;;;;;5053318;28;20045;-79
2022/08/21 11:13:32;;;;;;;4.90;0.50;;;30.20;63.70;;;;;;5052298;28;20151;-79
2022/08/21 11:16:33;;;;;;;3.08;1.08;;;30.40;64.60;;;;;;5056219;28;20047;-79
2022/08/21 11:19:07;;;;;;;2.67;0.93;;;30.60;62.80;;;;;;5058740;28;20048;-79
2022/08/21 11:21:38;;;;;;;4.93;0.55;;;30.00;63.60;;;;;;5058853;28;20047;-78
2022/08/21 11:24:26;;;;;;;4.30;1.58;;;29.90;66.30;;;;;;5055643;28;20443;-79
2022/08/21 11:26:57;;;;;;;3.67;0.57;;;30.00;62.90;;;;;;5087136;28;20106;-80
2022/08/21 11:29:35;;;;;;;3.08;0.47;;;30.30;63.60;;;;;;5055443;28;20117;-80
2022/08/21 11:32:20;;;;;;;2.42;0.30;;;30.40;63.70;;;;;;5054884;28;20472;-79
2022/08/21 11:35:02;;;;;;;;;;;30.50;64.00;;;;;;5056450;28;20505;-78
2022/08/21 11:37:42;;;;;;;2.88;0.40;;;30.30;60.00;;;;;;5057072;28;19930;-79
2022/08/21 11:40:38;;;;;;;2.97;0.60;;;30.10;64.20;;;;;;5058914;28;20036;-78
2022/08/21 11:43:03;;;;;;;3.03;0.40;;;30.30;60.80;;;;;;5039863;28;20487;-81
2022/08/21 11:45:38;;;;;;;5.07;0.68;;;30.60;60.40;;;;;;5056971;28;20089;-81
2022/08/21 11:48:46;;;;;;;5.22;0.30;;;30.40;58.10;;;;;;5058547;28;20048;-80
2022/08/21 11:51:27;;;;;;;2.40;0.60;;;30.00;59.50;;;;;;5057895;28;20118;-80
2022/08/21 11:54:35;;;;;;;4.47;0.60;;;30.00;57.20;;;;;;5061020;28;20071;-80
2022/08/21 11:57:14;;;;;;;1.63;0.28;;;29.90;59.10;;;;;;5045157;28;20057;-80
2022/08/21 11:59:46;;;;;;;2.25;0.90;;;29.90;60.10;;;;;;5029910;28;20143;-79
2022/08/21 12:02:19;;;;;;;6.63;0.50;;;29.70;58.50;;;;;;5030683;28;20168;-80
2022/08/21 12:04:56;;;;;;;3.95;0.35;;;29.60;58.50;;;;;;5038887;28;20038;-80
2022/08/21 12:07:35;;;;;;;2.60;0.30;;;29.50;57.80;;;;;;5070235;28;20047;-80
2022/08/21 12:10:03;;;;;;;3.13;0.95;;;29.30;60.00;;;;;;5070388;28;20170;-80
2022/08/21 12:12:32;;;;;;;3.75;0.50;;;29.00;58.70;;;;;;5070539;28;20038;-80
2022/08/21 12:15:05;;;;;;;2.55;0.50;;;28.50;59.10;;;;;;5070440;28;20037;-80
2022/08/21 12:17:37;;;;;;;2.85;0.30;;;28.20;60.50;;;;;;5070753;28;20139;-80
2022/08/21 12:20:15;;;;;;;3.08;0.82;;;27.90;61.90;;;;;;5071093;28;20047;-79
2022/08/21 12:22:41;;;;;;;3.33;0.95;;;27.70;64.40;;;;;;5061230;28;20052;-79
2022/08/21 12:25:16;;;;;;;3.90;0.50;;;27.60;65.60;;;;;;5053109;28;20041;-79
2022/08/21 12:27:49;;;;;;;2.42;0.30;;;27.50;66.00;;;;;;5053096;28;20164;-80
2022/08/21 12:30:26;;;;;;;2.00;0.40;;;27.50;64.50;;;;;;5052789;28;20081;-80
2022/08/21 12:33:17;;;;;;;4.57;0.85;;;27.30;64.50;;;;;;5055316;28;20056;-79
2022/08/21 12:35:44;;;;;;;2.33;0.22;;;27.00;66.10;;;;;;5053098;28;20067;-79
2022/08/21 12:38:23;;;;;;;4.00;0.70;;;26.70;69.50;;;;;;5065971;28;20106;-80
2022/08/21 12:40:57;;;;;;;2.63;0.63;;;26.60;71.70;;;;;;5073054;28;20052;-79
2022/08/21 12:43:35;;;;;;;8.23;1.40;;;26.20;74.70;;;;;;5072601;28;20053;-79
2022/08/21 12:46:04;;;;;;;4.13;0.60;;;26.00;77.60;;;;;;5073389;28;20042;-79
2022/08/21 12:48:38;;;;;;;1.40;0.25;;;25.70;80.00;;;;;;5054449;28;20115;-79
2022/08/21 12:51:11;;;;;;;;;;;25.60;80.50;;;;;;5071340;28;20401;-80
2022/08/21 12:53:48;;;;;;;3.15;0.85;;;25.40;79.60;;;;;;5104365;28;19916;-79
2022/08/21 12:56:16;;;;;;;2.20;0.40;;;25.30;82.30;;;;;;5050906;28;20052;-79
2022/08/21 12:58:48;;;;;;;2.28;0.30;;;25.20;86.30;;;;;;5084122;28;20090;-80
2022/08/21 13:01:20;;;;;;;3.10;0.40;;;25.20;91.90;;;;;;5050187;28;20037;-80